sensor_id;sensor_type;location;lat;lon;timestamp;pressure;altitude;pressure_sealevel;temperature;humidity
78016;BME280;67223;51.102;5.882;2023-07-13T00:00:17;101316.91;;;18.92;52.59
78016;BME280;67223;51.102;5.882;2023-07-13T00:02:43;101318.00;;;18.24;54.11
78016;BME280;67223;51.102;5.882;2023-07-13T00:05:09;101317.44;;;18.46;54.33
78016;BME280;67223;51.102;5.882;2023-07-13T00:07:35;101315.25;;;18.08;54.95
78016;BME280;67223;51.102;5.882;2023-07-13T00:10:02;101315.22;;;18.49;55.71
78016;BME280;67223;51.102;5.882;2023-07-13T00:12:31;101318.66;;;17.84;55.78
78016;BME280;67223;51.102;5.882;2023-07-13T00:14:58;101322.88;;;17.78;55.98
78016;BME280;67223;51.102;5.882;2023-07-13T00:17:25;101318.00;;;18.16;55.75
78016;BME280;67223;51.102;5.882;2023-07-13T00:19:51;101318.53;;;18.69;54.86
78016;BME280;67223;51.102;5.882;2023-07-13T00:22:17;101314.81;;;18.62;54.89
78016;BME280;67223;51.102;5.882;2023-07-13T00:24:43;101333.81;;;19.19;54.90
78016;BME280;67223;51.102;5.882;2023-07-13T00:27:09;101329.59;;;18.42;55.91
78016;BME280;67223;51.102;5.882;2023-07-13T00:29:36;101338.75;;;19.48;53.42
78016;BME280;67223;51.102;5.882;2023-07-13T00:32:03;101329.34;;;20.54;53.14
78016;BME280;67223;51.102;5.882;2023-07-13T00:34:28;101332.16;;;19.26;51.96
78016;BME280;67223;51.102;5.882;2023-07-13T00:36:54;101327.44;;;19.44;52.76
78016;BME280;67223;51.102;5.882;2023-07-13T00:39:19;101326.66;;;18.69;53.71
78016;BME280;67223;51.102;5.882;2023-07-13T00:41:46;101321.66;;;19.07;53.94
78016;BME280;67223;51.102;5.882;2023-07-13T00:44:17;101327.41;;;19.20;53.68
78016;BME280;67223;51.102;5.882;2023-07-13T00:46:43;101324.19;;;18.92;53.25
78016;BME280;67223;51.102;5.882;2023-07-13T00:49:11;101321.66;;;18.48;55.22
78016;BME280;67223;51.102;5.882;2023-07-13T00:51:49;101323.38;;;18.08;55.40
78016;BME280;67223;51.102;5.882;2023-07-13T00:54:19;101329.50;;;18.18;55.52
78016;BME280;67223;51.102;5.882;2023-07-13T00:56:49;101329.22;;;19.84;52.05
78016;BME280;67223;51.102;5.882;2023-07-13T00:59:17;101320.53;;;18.59;53.52
78016;BME280;67223;51.102;5.882;2023-07-13T01:01:44;101327.91;;;19.23;54.88
78016;BME280;67223;51.102;5.882;2023-07-13T01:04:10;101336.88;;;19.16;53.42
78016;BME280;67223;51.102;5.882;2023-07-13T01:06:37;101333.66;;;19.20;54.17
78016;BME280;67223;51.102;5.882;2023-07-13T01:09:04;101333.56;;;18.56;55.28
78016;BME280;67223;51.102;5.882;2023-07-13T01:11:29;101324.63;;;18.29;55.89
78016;BME280;67223;51.102;5.882;2023-07-13T01:13:55;101328.16;;;18.22;57.44
78016;BME280;67223;51.102;5.882;2023-07-13T01:16:32;101331.44;;;18.91;55.19
78016;BME280;67223;51.102;5.882;2023-07-13T01:18:58;101335.06;;;19.57;53.96
78016;BME280;67223;51.102;5.882;2023-07-13T01:21:25;101336.88;;;19.81;52.71
78016;BME280;67223;51.102;5.882;2023-07-13T01:23:50;101332.72;;;20.17;53.69
78016;BME280;67223;51.102;5.882;2023-07-13T01:26:16;101338.59;;;19.17;55.04
78016;BME280;67223;51.102;5.882;2023-07-13T01:28:42;101335.16;;;18.99;53.74
78016;BME280;67223;51.102;5.882;2023-07-13T01:31:08;101333.41;;;20.11;53.84
78016;BME280;67223;51.102;5.882;2023-07-13T01:33:36;101330.44;;;20.29;51.33
78016;BME280;67223;51.102;5.882;2023-07-13T01:36:01;101326.53;;;19.44;53.01
78016;BME280;67223;51.102;5.882;2023-07-13T01:38:27;101332.13;;;21.45;51.38
78016;BME280;67223;51.102;5.882;2023-07-13T01:40:53;101327.25;;;21.18;49.81
78016;BME280;67223;51.102;5.882;2023-07-13T01:43:19;101334.84;;;20.77;49.57
78016;BME280;67223;51.102;5.882;2023-07-13T01:45:44;101334.69;;;19.60;52.99
78016;BME280;67223;51.102;5.882;2023-07-13T01:48:10;101333.41;;;20.11;51.49
78016;BME280;67223;51.102;5.882;2023-07-13T01:50:36;101335.59;;;21.16;51.91
78016;BME280;67223;51.102;5.882;2023-07-13T01:53:02;101332.75;;;20.79;50.22
78016;BME280;67223;51.102;5.882;2023-07-13T01:55:28;101334.09;;;22.32;49.89
78016;BME280;67223;51.102;5.882;2023-07-13T01:57:54;101335.38;;;22.66;48.59
78016;BME280;67223;51.102;5.882;2023-07-13T02:00:19;101336.88;;;21.66;49.96
78016;BME280;67223;51.102;5.882;2023-07-13T02:02:45;101338.66;;;21.88;49.58
78016;BME280;67223;51.102;5.882;2023-07-13T02:05:12;101340.75;;;21.48;49.65
78016;BME280;67223;51.102;5.882;2023-07-13T02:07:38;101342.06;;;21.07;51.14
78016;BME280;67223;51.102;5.882;2023-07-13T02:10:04;101344.25;;;21.72;51.05
78016;BME280;67223;51.102;5.882;2023-07-13T02:12:30;101341.31;;;20.68;51.75
78016;BME280;67223;51.102;5.882;2023-07-13T02:14:55;101341.84;;;20.94;50.69
78016;BME280;67223;51.102;5.882;2023-07-13T02:17:21;101346.78;;;21.96;50.79
78016;BME280;67223;51.102;5.882;2023-07-13T02:19:46;101342.59;;;19.94;51.69
78016;BME280;67223;51.102;5.882;2023-07-13T02:22:12;101343.59;;;20.87;50.92
78016;BME280;67223;51.102;5.882;2023-07-13T02:24:37;101341.16;;;19.51;55.83
78016;BME280;67223;51.102;5.882;2023-07-13T02:27:04;101338.47;;;18.68;56.44
78016;BME280;67223;51.102;5.882;2023-07-13T02:29:29;101344.31;;;19.14;57.68
78016;BME280;67223;51.102;5.882;2023-07-13T02:31:55;101341.00;;;17.94;57.61
78016;BME280;67223;51.102;5.882;2023-07-13T02:34:20;101343.69;;;18.20;58.17
78016;BME280;67223;51.102;5.882;2023-07-13T02:36:46;101341.22;;;18.84;58.67
78016;BME280;67223;51.102;5.882;2023-07-13T02:39:12;101335.50;;;19.28;56.23
78016;BME280;67223;51.102;5.882;2023-07-13T02:41:37;101346.91;;;18.23;57.66
78016;BME280;67223;51.102;5.882;2023-07-13T02:44:03;101348.03;;;19.05;58.49
78016;BME280;67223;51.102;5.882;2023-07-13T02:46:33;101344.94;;;18.67;57.32
78016;BME280;67223;51.102;5.882;2023-07-13T02:48:58;101337.91;;;19.71;55.97
78016;BME280;67223;51.102;5.882;2023-07-13T02:51:24;101343.47;;;19.13;55.58
78016;BME280;67223;51.102;5.882;2023-07-13T02:53:49;101346.16;;;20.80;53.49
78016;BME280;67223;51.102;5.882;2023-07-13T02:56:15;101341.13;;;21.45;50.83
78016;BME280;67223;51.102;5.882;2023-07-13T02:58:40;101340.81;;;20.64;52.14
78016;BME280;67223;51.102;5.882;2023-07-13T03:01:08;101342.00;;;19.67;54.97
78016;BME280;67223;51.102;5.882;2023-07-13T03:03:33;101338.97;;;18.56;57.38
78016;BME280;67223;51.102;5.882;2023-07-13T03:06:00;101349.75;;;19.70;55.36
78016;BME280;67223;51.102;5.882;2023-07-13T03:08:27;101359.00;;;21.40;51.77
78016;BME280;67223;51.102;5.882;2023-07-13T03:11:03;101358.19;;;19.43;54.74
78016;BME280;67223;51.102;5.882;2023-07-13T03:13:30;101356.78;;;20.90;54.63
78016;BME280;67223;51.102;5.882;2023-07-13T03:15:55;101366.84;;;20.50;52.43
78016;BME280;67223;51.102;5.882;2023-07-13T03:18:21;101369.63;;;20.26;51.66
78016;BME280;67223;51.102;5.882;2023-07-13T03:20:47;101376.84;;;21.57;51.83
78016;BME280;67223;51.102;5.882;2023-07-13T03:23:14;101368.66;;;21.65;52.13
78016;BME280;67223;51.102;5.882;2023-07-13T03:25:40;101371.22;;;21.21;51.57
78016;BME280;67223;51.102;5.882;2023-07-13T03:28:05;101377.44;;;21.30;52.30
78016;BME280;67223;51.102;5.882;2023-07-13T03:30:31;101374.16;;;21.95;50.42
78016;BME280;67223;51.102;5.882;2023-07-13T03:32:56;101371.25;;;20.82;51.30
78016;BME280;67223;51.102;5.882;2023-07-13T03:35:22;101375.69;;;20.44;52.50
78016;BME280;67223;51.102;5.882;2023-07-13T03:37:47;101379.44;;;22.25;51.05
78016;BME280;67223;51.102;5.882;2023-07-13T03:40:13;101383.00;;;21.36;50.20
78016;BME280;67223;51.102;5.882;2023-07-13T03:42:39;101387.78;;;22.09;50.58
78016;BME280;67223;51.102;5.882;2023-07-13T03:45:04;101389.41;;;21.81;49.49
78016;BME280;67223;51.102;5.882;2023-07-13T03:47:30;101390.13;;;22.27;49.45
78016;BME280;67223;51.102;5.882;2023-07-13T03:49:55;101384.19;;;22.53;48.93
78016;BME280;67223;51.102;5.882;2023-07-13T03:52:21;101394.84;;;21.58;49.78
78016;BME280;67223;51.102;5.882;2023-07-13T03:54:46;101390.09;;;21.15;50.38
78016;BME280;67223;51.102;5.882;2023-07-13T03:57:12;101391.44;;;21.41;51.30
78016;BME280;67223;51.102;5.882;2023-07-13T03:59:37;101390.88;;;21.23;52.91
78016;BME280;67223;51.102;5.882;2023-07-13T04:04:39;101390.88;;;21.69;51.37
78016;BME280;67223;51.102;5.882;2023-07-13T04:07:06;101392.00;;;21.37;52.59
78016;BME280;67223;51.102;5.882;2023-07-13T04:09:33;101395.09;;;20.09;54.71
78016;BME280;67223;51.102;5.882;2023-07-13T04:11:59;101397.22;;;21.08;53.25
78016;BME280;67223;51.102;5.882;2023-07-13T04:14:24;101392.41;;;20.95;54.36
78016;BME280;67223;51.102;5.882;2023-07-13T04:16:49;101395.59;;;20.68;54.54
78016;BME280;67223;51.102;5.882;2023-07-13T04:19:15;101396.94;;;21.33;54.03
78016;BME280;67223;51.102;5.882;2023-07-13T04:21:40;101391.72;;;20.07;51.96
78016;BME280;67223;51.102;5.882;2023-07-13T04:24:06;101400.56;;;19.60;54.68
78016;BME280;67223;51.102;5.882;2023-07-13T04:26:33;101398.59;;;21.57;52.88
78016;BME280;67223;51.102;5.882;2023-07-13T04:29:01;101394.03;;;21.04;53.66
78016;BME280;67223;51.102;5.882;2023-07-13T04:31:29;101400.91;;;19.73;54.93
78016;BME280;67223;51.102;5.882;2023-07-13T04:33:54;101395.69;;;20.82;54.74
78016;BME280;67223;51.102;5.882;2023-07-13T04:36:20;101408.88;;;21.24;52.67
78016;BME280;67223;51.102;5.882;2023-07-13T04:38:45;101411.88;;;21.52;51.08
78016;BME280;67223;51.102;5.882;2023-07-13T04:41:11;101401.84;;;22.42;49.91
78016;BME280;67223;51.102;5.882;2023-07-13T04:43:37;101404.91;;;21.04;51.04
78016;BME280;67223;51.102;5.882;2023-07-13T04:46:08;101407.78;;;21.33;51.58
78016;BME280;67223;51.102;5.882;2023-07-13T04:48:34;101416.22;;;21.84;50.64
78016;BME280;67223;51.102;5.882;2023-07-13T04:51:00;101415.44;;;21.53;51.79
78016;BME280;67223;51.102;5.882;2023-07-13T04:53:27;101411.88;;;20.68;54.65
78016;BME280;67223;51.102;5.882;2023-07-13T04:55:52;101407.72;;;20.57;55.33
78016;BME280;67223;51.102;5.882;2023-07-13T04:58:18;101416.31;;;21.53;54.16
78016;BME280;67223;51.102;5.882;2023-07-13T05:00:44;101415.69;;;21.12;52.16
78016;BME280;67223;51.102;5.882;2023-07-13T05:03:10;101415.84;;;22.39;51.41
78016;BME280;67223;51.102;5.882;2023-07-13T05:05:35;101417.63;;;22.91;48.88
78016;BME280;67223;51.102;5.882;2023-07-13T05:08:01;101432.25;;;22.02;51.94
78016;BME280;67223;51.102;5.882;2023-07-13T05:10:27;101442.16;;;21.95;49.17
78016;BME280;67223;51.102;5.882;2023-07-13T05:12:52;101436.31;;;22.35;51.06
78016;BME280;67223;51.102;5.882;2023-07-13T05:15:22;101432.09;;;22.91;50.58
78016;BME280;67223;51.102;5.882;2023-07-13T05:17:49;101438.91;;;22.87;50.54
78016;BME280;67223;51.102;5.882;2023-07-13T05:20:15;101438.22;;;23.14;49.59
78016;BME280;67223;51.102;5.882;2023-07-13T05:22:42;101445.06;;;21.70;52.76
78016;BME280;67223;51.102;5.882;2023-07-13T05:25:08;101439.31;;;20.42;56.36
78016;BME280;67223;51.102;5.882;2023-07-13T05:27:34;101440.66;;;21.46;55.26
78016;BME280;67223;51.102;5.882;2023-07-13T05:30:00;101439.84;;;21.07;54.00
78016;BME280;67223;51.102;5.882;2023-07-13T05:32:26;101445.31;;;21.61;52.90
78016;BME280;67223;51.102;5.882;2023-07-13T05:34:51;101445.69;;;22.47;53.40
78016;BME280;67223;51.102;5.882;2023-07-13T05:37:17;101450.53;;;22.08;52.29
78016;BME280;67223;51.102;5.882;2023-07-13T05:39:43;101448.66;;;20.31;56.34
78016;BME280;67223;51.102;5.882;2023-07-13T05:42:08;101450.78;;;21.53;56.38
78016;BME280;67223;51.102;5.882;2023-07-13T05:44:33;101451.50;;;20.85;57.04
78016;BME280;67223;51.102;5.882;2023-07-13T05:46:59;101457.72;;;20.54;57.98
78016;BME280;67223;51.102;5.882;2023-07-13T05:49:24;101456.50;;;22.41;54.93
78016;BME280;67223;51.102;5.882;2023-07-13T05:51:50;101469.19;;;22.78;54.79
78016;BME280;67223;51.102;5.882;2023-07-13T05:54:15;101462.50;;;22.95;53.59
78016;BME280;67223;51.102;5.882;2023-07-13T05:56:41;101465.25;;;22.13;52.45
78016;BME280;67223;51.102;5.882;2023-07-13T05:59:06;101469.53;;;21.70;52.35
78016;BME280;67223;51.102;5.882;2023-07-13T06:01:32;101463.16;;;21.78;55.07
78016;BME280;67223;51.102;5.882;2023-07-13T06:03:58;101469.00;;;21.13;58.75
78016;BME280;67223;51.102;5.882;2023-07-13T06:06:23;101472.75;;;23.29;53.78
78016;BME280;67223;51.102;5.882;2023-07-13T06:08:49;101471.44;;;22.74;51.06
78016;BME280;67223;51.102;5.882;2023-07-13T06:11:20;101485.84;;;24.18;50.22
78016;BME280;67223;51.102;5.882;2023-07-13T06:13:46;101478.53;;;21.17;54.65
78016;BME280;67223;51.102;5.882;2023-07-13T06:16:12;101471.63;;;19.30;56.30
78016;BME280;67223;51.102;5.882;2023-07-13T06:18:39;101481.88;;;20.17;58.31
78016;BME280;67223;51.102;5.882;2023-07-13T06:21:10;101501.59;;;21.75;57.78
78016;BME280;67223;51.102;5.882;2023-07-13T06:23:35;101488.03;;;22.64;54.36
78016;BME280;67223;51.102;5.882;2023-07-13T06:26:02;101495.59;;;22.25;55.48
78016;BME280;67223;51.102;5.882;2023-07-13T06:28:28;101497.03;;;22.65;51.16
78016;BME280;67223;51.102;5.882;2023-07-13T06:30:55;101494.16;;;22.14;55.26
78016;BME280;67223;51.102;5.882;2023-07-13T06:33:20;101498.00;;;22.05;53.86
78016;BME280;67223;51.102;5.882;2023-07-13T06:35:46;101503.91;;;23.05;54.37
78016;BME280;67223;51.102;5.882;2023-07-13T06:38:11;101503.66;;;20.64;54.88
78016;BME280;67223;51.102;5.882;2023-07-13T06:40:36;101507.56;;;23.84;52.73
78016;BME280;67223;51.102;5.882;2023-07-13T06:43:02;101511.31;;;22.67;52.63
78016;BME280;67223;51.102;5.882;2023-07-13T06:45:27;101505.38;;;21.04;54.94
78016;BME280;67223;51.102;5.882;2023-07-13T06:47:53;101508.53;;;23.55;52.68
78016;BME280;67223;51.102;5.882;2023-07-13T06:50:18;101504.16;;;20.68;54.93
78016;BME280;67223;51.102;5.882;2023-07-13T06:52:43;101511.00;;;21.87;55.66
78016;BME280;67223;51.102;5.882;2023-07-13T06:55:09;101514.56;;;23.36;51.70
78016;BME280;67223;51.102;5.882;2023-07-13T06:57:34;101514.75;;;23.49;51.30
78016;BME280;67223;51.102;5.882;2023-07-13T07:00:00;101511.84;;;23.72;50.73
78016;BME280;67223;51.102;5.882;2023-07-13T07:02:25;101517.34;;;23.21;49.89
78016;BME280;67223;51.102;5.882;2023-07-13T07:04:51;101521.06;;;23.35;51.51
78016;BME280;67223;51.102;5.882;2023-07-13T07:07:16;101527.53;;;22.08;51.77
78016;BME280;67223;51.102;5.882;2023-07-13T07:09:42;101520.38;;;23.33;53.25
78016;BME280;67223;51.102;5.882;2023-07-13T07:12:07;101519.97;;;21.42;53.22
78016;BME280;67223;51.102;5.882;2023-07-13T07:14:33;101530.47;;;23.68;51.21
78016;BME280;67223;51.102;5.882;2023-07-13T07:16:59;101526.97;;;23.74;50.47
78016;BME280;67223;51.102;5.882;2023-07-13T07:19:24;101527.25;;;21.50;53.75
78016;BME280;67223;51.102;5.882;2023-07-13T07:21:50;101524.81;;;22.08;53.71
78016;BME280;67223;51.102;5.882;2023-07-13T07:24:15;101534.88;;;24.12;49.63
78016;BME280;67223;51.102;5.882;2023-07-13T07:26:41;101523.34;;;23.88;50.04
78016;BME280;67223;51.102;5.882;2023-07-13T07:29:06;101535.50;;;21.64;53.87
78016;BME280;67223;51.102;5.882;2023-07-13T07:31:32;101542.41;;;22.20;52.48
78016;BME280;67223;51.102;5.882;2023-07-13T07:33:57;101540.13;;;22.09;56.74
78016;BME280;67223;51.102;5.882;2023-07-13T07:36:23;101544.75;;;22.61;54.41
78016;BME280;67223;51.102;5.882;2023-07-13T07:38:48;101544.19;;;21.29;55.57
78016;BME280;67223;51.102;5.882;2023-07-13T07:41:13;101542.72;;;21.72;56.36
78016;BME280;67223;51.102;5.882;2023-07-13T07:43:39;101549.13;;;22.62;54.10
78016;BME280;67223;51.102;5.882;2023-07-13T07:46:04;101543.47;;;23.87;51.09
78016;BME280;67223;51.102;5.882;2023-07-13T07:48:30;101548.16;;;21.72;53.10
78016;BME280;67223;51.102;5.882;2023-07-13T07:50:56;101547.78;;;22.28;54.66
78016;BME280;67223;51.102;5.882;2023-07-13T07:53:21;101543.22;;;23.32;51.85
78016;BME280;67223;51.102;5.882;2023-07-13T07:55:47;101547.59;;;21.84;52.91
78016;BME280;67223;51.102;5.882;2023-07-13T07:58:13;101549.56;;;22.88;54.35
78016;BME280;67223;51.102;5.882;2023-07-13T08:00:38;101550.16;;;23.64;51.08
78016;BME280;67223;51.102;5.882;2023-07-13T08:03:04;101547.00;;;23.31;51.04
78016;BME280;67223;51.102;5.882;2023-07-13T08:05:29;101545.00;;;21.91;53.50
78016;BME280;67223;51.102;5.882;2023-07-13T08:07:55;101546.75;;;23.26;51.81
78016;BME280;67223;51.102;5.882;2023-07-13T08:10:20;101552.63;;;22.56;53.73
78016;BME280;67223;51.102;5.882;2023-07-13T08:12:46;101543.34;;;24.17;49.74
78016;BME280;67223;51.102;5.882;2023-07-13T08:15:14;101546.97;;;24.02;50.08
78016;BME280;67223;51.102;5.882;2023-07-13T08:17:40;101546.97;;;22.57;50.93
78016;BME280;67223;51.102;5.882;2023-07-13T08:20:06;101550.31;;;24.40;48.75
78016;BME280;67223;51.102;5.882;2023-07-13T08:22:32;101543.13;;;22.14;54.39
78016;BME280;67223;51.102;5.882;2023-07-13T08:24:59;101539.59;;;21.60;53.59
78016;BME280;67223;51.102;5.882;2023-07-13T08:27:26;101546.06;;;21.82;56.73
78016;BME280;67223;51.102;5.882;2023-07-13T08:29:52;101541.03;;;22.39;54.37
78016;BME280;67223;51.102;5.882;2023-07-13T08:32:18;101535.34;;;22.63;54.25
78016;BME280;67223;51.102;5.882;2023-07-13T08:34:44;101541.22;;;21.92;54.47
78016;BME280;67223;51.102;5.882;2023-07-13T08:37:10;101529.75;;;24.02;50.33
78016;BME280;67223;51.102;5.882;2023-07-13T08:39:35;101541.09;;;21.94;53.92
78016;BME280;67223;51.102;5.882;2023-07-13T08:42:05;101537.38;;;23.64;49.83
78016;BME280;67223;51.102;5.882;2023-07-13T08:44:43;101538.81;;;22.57;51.75
78016;BME280;67223;51.102;5.882;2023-07-13T08:47:12;101536.94;;;24.24;49.29
78016;BME280;67223;51.102;5.882;2023-07-13T08:49:39;101543.94;;;22.75;50.05
78016;BME280;67223;51.102;5.882;2023-07-13T08:52:37;101538.63;;;23.47;50.29
78016;BME280;67223;51.102;5.882;2023-07-13T08:55:16;101535.03;;;21.53;53.39
78016;BME280;67223;51.102;5.882;2023-07-13T08:57:45;101553.84;;;24.41;48.44
78016;BME280;67223;51.102;5.882;2023-07-13T09:00:13;101536.25;;;25.06;46.75
78016;BME280;67223;51.102;5.882;2023-07-13T09:02:54;101537.19;;;25.26;46.44
78016;BME280;67223;51.102;5.882;2023-07-13T09:05:34;101539.91;;;25.26;45.84
78016;BME280;67223;51.102;5.882;2023-07-13T09:08:33;101539.03;;;24.50;47.57
78016;BME280;67223;51.102;5.882;2023-07-13T09:16:41;101537.97;;;24.79;47.54
78016;BME280;67223;51.102;5.882;2023-07-13T09:19:11;101540.38;;;25.29;45.79
78016;BME280;67223;51.102;5.882;2023-07-13T09:21:41;101532.22;;;23.54;48.96
78016;BME280;67223;51.102;5.882;2023-07-13T09:27:22;101541.00;;;25.32;45.50
78016;BME280;67223;51.102;5.882;2023-07-13T09:29:57;101536.72;;;25.63;44.74
78016;BME280;67223;51.102;5.882;2023-07-13T09:32:24;101544.41;;;25.40;44.73
78016;BME280;67223;51.102;5.882;2023-07-13T09:34:53;101539.84;;;25.60;44.85
78016;BME280;67223;51.102;5.882;2023-07-13T09:37:21;101543.09;;;25.84;44.08
78016;BME280;67223;51.102;5.882;2023-07-13T09:39:49;101557.16;;;25.81;43.96
78016;BME280;67223;51.102;5.882;2023-07-13T09:42:17;101544.78;;;25.98;43.77
78016;BME280;67223;51.102;5.882;2023-07-13T09:47:26;101543.28;;;25.95;43.73
78016;BME280;67223;51.102;5.882;2023-07-13T09:49:57;101534.69;;;25.98;43.65
78016;BME280;67223;51.102;5.882;2023-07-13T09:52:24;101538.47;;;25.30;45.26
78016;BME280;67223;51.102;5.882;2023-07-13T09:54:52;101536.06;;;25.61;44.38
78016;BME280;67223;51.102;5.882;2023-07-13T09:57:25;101538.47;;;25.84;44.41
78016;BME280;67223;51.102;5.882;2023-07-13T09:59:53;101537.84;;;26.08;43.59
78016;BME280;67223;51.102;5.882;2023-07-13T10:05:14;101543.66;;;25.66;44.28
78016;BME280;67223;51.102;5.882;2023-07-13T10:07:43;101553.03;;;25.44;45.09
78016;BME280;67223;51.102;5.882;2023-07-13T10:10:19;101562.91;;;25.38;44.91
78016;BME280;67223;51.102;5.882;2023-07-13T10:12:46;101554.69;;;24.97;45.96
78016;BME280;67223;51.102;5.882;2023-07-13T10:15:24;101555.44;;;25.60;44.57
78016;BME280;67223;51.102;5.882;2023-07-13T10:17:51;101555.31;;;26.01;43.34
78016;BME280;67223;51.102;5.882;2023-07-13T10:20:18;101550.25;;;26.11;43.02
78016;BME280;67223;51.102;5.882;2023-07-13T10:22:52;101549.09;;;25.12;43.65
78016;BME280;67223;51.102;5.882;2023-07-13T10:25:22;101549.47;;;25.43;44.71
78016;BME280;67223;51.102;5.882;2023-07-13T10:27:52;101560.16;;;25.99;43.79
78016;BME280;67223;51.102;5.882;2023-07-13T10:30:21;101545.88;;;24.67;44.56
78016;BME280;67223;51.102;5.882;2023-07-13T10:32:51;101547.25;;;25.66;44.36
78016;BME280;67223;51.102;5.882;2023-07-13T10:35:19;101551.22;;;25.57;44.33
78016;BME280;67223;51.102;5.882;2023-07-13T10:37:49;101553.75;;;25.18;45.39
78016;BME280;67223;51.102;5.882;2023-07-13T10:40:25;101560.34;;;25.30;45.28
78016;BME280;67223;51.102;5.882;2023-07-13T10:42:54;101550.69;;;25.95;43.96
78016;BME280;67223;51.102;5.882;2023-07-13T10:45:23;101554.69;;;25.99;43.42
78016;BME280;67223;51.102;5.882;2023-07-13T10:47:51;101552.81;;;25.99;43.42
78016;BME280;67223;51.102;5.882;2023-07-13T10:50:26;101542.78;;;25.11;43.87
78016;BME280;67223;51.102;5.882;2023-07-13T10:53:17;101550.44;;;25.70;43.00
78016;BME280;67223;51.102;5.882;2023-07-13T10:58:40;101549.44;;;26.04;43.08
78016;BME280;67223;51.102;5.882;2023-07-13T11:21:33;101543.34;;;24.94;41.41
78016;BME280;67223;51.102;5.882;2023-07-13T11:24:04;101542.44;;;25.82;40.17
78016;BME280;67223;51.102;5.882;2023-07-13T11:26:58;101540.44;;;25.49;40.25
78016;BME280;67223;51.102;5.882;2023-07-13T11:29:37;101556.59;;;26.18;42.35
78016;BME280;67223;51.102;5.882;2023-07-13T11:32:23;101542.94;;;26.31;41.78
78016;BME280;67223;51.102;5.882;2023-07-13T11:34:49;101551.72;;;26.00;39.65
78016;BME280;67223;51.102;5.882;2023-07-13T11:37:17;101549.03;;;26.60;39.55
78016;BME280;67223;51.102;5.882;2023-07-13T11:39:44;101537.03;;;26.28;40.52
78016;BME280;67223;51.102;5.882;2023-07-13T11:42:13;101540.41;;;26.36;41.79
78016;BME280;67223;51.102;5.882;2023-07-13T11:44:48;101544.41;;;26.40;41.37
78016;BME280;67223;51.102;5.882;2023-07-13T11:47:20;101536.38;;;26.72;38.54
78016;BME280;67223;51.102;5.882;2023-07-13T11:49:52;101535.97;;;26.75;39.74
78016;BME280;67223;51.102;5.882;2023-07-13T11:52:23;101538.91;;;26.40;39.56
78016;BME280;67223;51.102;5.882;2023-07-13T11:54:53;101546.53;;;26.45;41.14
78016;BME280;67223;51.102;5.882;2023-07-13T11:57:31;101534.06;;;26.09;41.79
78016;BME280;67223;51.102;5.882;2023-07-13T12:00:00;101535.16;;;26.28;41.51
78016;BME280;67223;51.102;5.882;2023-07-13T12:02:35;101533.84;;;26.18;41.21
78016;BME280;67223;51.102;5.882;2023-07-13T12:05:03;101545.91;;;26.23;41.59
78016;BME280;67223;51.102;5.882;2023-07-13T12:07:31;101536.56;;;26.11;41.39
78016;BME280;67223;51.102;5.882;2023-07-13T12:10:16;101552.38;;;26.02;40.10
78016;BME280;67223;51.102;5.882;2023-07-13T12:12:53;101556.59;;;26.18;39.61
78016;BME280;67223;51.102;5.882;2023-07-13T12:15:20;101542.69;;;26.00;38.25
78016;BME280;67223;51.102;5.882;2023-07-13T12:17:47;101539.75;;;26.21;41.31
78016;BME280;67223;51.102;5.882;2023-07-13T12:20:24;101531.31;;;26.16;41.65
78016;BME280;67223;51.102;5.882;2023-07-13T12:22:51;101546.69;;;25.97;41.20
78016;BME280;67223;51.102;5.882;2023-07-13T12:25:18;101542.69;;;26.13;41.74
78016;BME280;67223;51.102;5.882;2023-07-13T12:27:50;101544.13;;;25.83;40.49
78016;BME280;67223;51.102;5.882;2023-07-13T12:30:31;101541.22;;;26.04;41.23
78016;BME280;67223;51.102;5.882;2023-07-13T12:33:21;101539.75;;;26.08;41.12
78016;BME280;67223;51.102;5.882;2023-07-13T12:35:51;101538.91;;;26.14;40.94
78016;BME280;67223;51.102;5.882;2023-07-13T12:38:21;101542.47;;;26.01;41.06
78016;BME280;67223;51.102;5.882;2023-07-13T12:40:50;101550.25;;;25.85;40.53
78016;BME280;67223;51.102;5.882;2023-07-13T12:43:17;101547.31;;;25.93;41.51
78016;BME280;67223;51.102;5.882;2023-07-13T12:46:14;101543.09;;;24.89;41.64
78016;BME280;67223;51.102;5.882;2023-07-13T12:48:42;101538.09;;;24.64;41.13
78016;BME280;67223;51.102;5.882;2023-07-13T12:51:12;101538.19;;;25.59;42.52
78016;BME280;67223;51.102;5.882;2023-07-13T12:53:41;101545.44;;;26.00;41.65
78016;BME280;67223;51.102;5.882;2023-07-13T12:56:18;101550.25;;;25.98;40.57
78016;BME280;67223;51.102;5.882;2023-07-13T12:58:45;101535.50;;;25.86;40.04
78016;BME280;67223;51.102;5.882;2023-07-13T13:01:14;101538.88;;;26.01;41.38
78016;BME280;67223;51.102;5.882;2023-07-13T13:03:48;101525.84;;;26.03;41.43
78016;BME280;67223;51.102;5.882;2023-07-13T13:08:44;101533.84;;;26.04;40.87
78016;BME280;67223;51.102;5.882;2023-07-13T13:11:10;101544.63;;;25.45;41.59
78016;BME280;67223;51.102;5.882;2023-07-13T13:13:35;101537.22;;;26.00;42.05
78016;BME280;67223;51.102;5.882;2023-07-13T13:18:58;101540.66;;;25.54;41.13
78016;BME280;67223;51.102;5.882;2023-07-13T13:21:25;101544.59;;;25.99;41.63
78016;BME280;67223;51.102;5.882;2023-07-13T13:23:51;101547.75;;;26.03;42.77
78016;BME280;67223;51.102;5.882;2023-07-13T13:26:19;101541.19;;;25.91;42.56
78016;BME280;67223;51.102;5.882;2023-07-13T13:28:46;101552.56;;;26.01;42.35
78016;BME280;67223;51.102;5.882;2023-07-13T13:31:13;101553.63;;;25.93;42.07
78016;BME280;67223;51.102;5.882;2023-07-13T13:33:42;101549.38;;;25.91;42.57
78016;BME280;67223;51.102;5.882;2023-07-13T13:36:22;101554.88;;;25.97;42.00
78016;BME280;67223;51.102;5.882;2023-07-13T13:38:49;101555.91;;;25.77;40.83